Blythe Airport
KBLH : now visible

Airfield :











YOU CAN JOIN US ON...

 
LOGIN :

Register | Disclaimer

   EN    FR    IT 

 









Legend :    VFR   Marginal VFR   IFR   Intensive IFR   Very Intensive IFR
Visi :
Ceiling :
>= 8 km
>= 3000ft
5 to 8 km
1000 to 3000 ft
1500m to 5 km
500 to 1000 ft
800 to 1500m
200 to 500 ft
< 800m
< 200 ft
Symbols :   Thunderstorms  Fog  Heavy snow  Heavy precipitations  Wind > 20 kt






- Airport Elevation : 399 ft


KBLH - Blythe

CURRENT METAR :
  • 252052Z AUTO 24024G31KT 10SM CLR 13/00 A2964 RMK AO2 PK WND 25035/1953 SLP035 T01330000 56022

EXPIRED METARs :
  • 251952Z AUTO 24028G39KT 10SM CLR 13/01 A2966 RMK AO2 PK WND 24040/1854 SLP041 T01280006
  • 251852Z AUTO 24031G39KT 10SM CLR 12/02 A2967 RMK AO2 PK WND 25039/1846 SLP045 T01220017
  • 251752Z AUTO 19020G28KT 10SM FEW041 SCT110 10/05 A2971 RMK AO2 PK WND 20028/1751 RAB03E38 SLP058 P0004 60010 T01000050 10100 20083 58012

TAF KBLH
Valid from the 25 at 18:00 until the 26 at 18:00 UTC


251723Z 2518/2618 21012KT P6SM VCSH BKN050 BKN100
FM251900 24015G28KT P6SM SCT050 BKN100
FM260200 21012KT P6SM SCT100 SCT200
KZLA FIR / North America



MET'MAP, your aeronautical weather chart ! - Copyright ORBIFLY December 2007 - Disclaimer

ORBIFLY MET'MAP TEAM :

Programming & Development : Alexandra Zaïnal
Concept & original design : Baudouin d'Aumeries
Assistance for programming : Marc-Olivier Méhu
Technical & hardware support : Manuel Goepfert

Contact : metmap@orbifly.com




SOURCES & CREDITS :

   NOAA       Earth
Advisory